sensor_id;sensor_type;location;lat;lon;timestamp;temperature;humidity
23597;DHT22;40226;50.874;4.394;2022-08-03T00:00:40;23.40;99.90
23597;DHT22;40226;50.874;4.394;2022-08-03T00:03:06;23.20;99.90
23597;DHT22;40226;50.874;4.394;2022-08-03T00:05:32;23.30;99.90
23597;DHT22;40226;50.874;4.394;2022-08-03T00:07:58;23.10;99.90
23597;DHT22;40226;50.874;4.394;2022-08-03T00:10:24;23.00;99.90
23597;DHT22;40226;50.874;4.394;2022-08-03T00:12:51;23.10;99.90
23597;DHT22;40226;50.874;4.394;2022-08-03T00:15:17;23.10;99.90
23597;DHT22;40226;50.874;4.394;2022-08-03T00:17:44;23.10;99.90
23597;DHT22;40226;50.874;4.394;2022-08-03T00:20:10;23.10;99.90
23597;DHT22;40226;50.874;4.394;2022-08-03T00:22:35;23.00;99.90
23597;DHT22;40226;50.874;4.394;2022-08-03T00:25:01;23.10;99.90
23597;DHT22;40226;50.874;4.394;2022-08-03T00:27:26;23.10;99.90
23597;DHT22;40226;50.874;4.394;2022-08-03T00:29:52;22.90;99.90
23597;DHT22;40226;50.874;4.394;2022-08-03T00:32:18;22.70;99.90
23597;DHT22;40226;50.874;4.394;2022-08-03T00:34:43;22.70;99.90
23597;DHT22;40226;50.874;4.394;2022-08-03T00:37:09;22.70;99.90
23597;DHT22;40226;50.874;4.394;2022-08-03T00:39:34;22.70;99.90
23597;DHT22;40226;50.874;4.394;2022-08-03T00:42:04;22.70;99.90
23597;DHT22;40226;50.874;4.394;2022-08-03T00:44:30;22.80;99.90
23597;DHT22;40226;50.874;4.394;2022-08-03T00:46:56;22.80;99.90
23597;DHT22;40226;50.874;4.394;2022-08-03T00:49:22;22.90;99.90
23597;DHT22;40226;50.874;4.394;2022-08-03T00:51:48;22.80;99.90
23597;DHT22;40226;50.874;4.394;2022-08-03T00:54:16;22.60;99.90
23597;DHT22;40226;50.874;4.394;2022-08-03T00:56:42;22.70;99.90
23597;DHT22;40226;50.874;4.394;2022-08-03T00:59:09;22.60;99.90
23597;DHT22;40226;50.874;4.394;2022-08-03T01:01:35;22.60;99.90
23597;DHT22;40226;50.874;4.394;2022-08-03T01:04:00;22.50;99.90
23597;DHT22;40226;50.874;4.394;2022-08-03T01:06:40;22.40;99.90
23597;DHT22;40226;50.874;4.394;2022-08-03T01:12:01;22.60;99.90
23597;DHT22;40226;50.874;4.394;2022-08-03T01:14:57;22.50;99.90
23597;DHT22;40226;50.874;4.394;2022-08-03T01:17:41;22.60;99.90
23597;DHT22;40226;50.874;4.394;2022-08-03T01:20:12;22.50;99.90
23597;DHT22;40226;50.874;4.394;2022-08-03T01:23:09;22.30;99.90
23597;DHT22;40226;50.874;4.394;2022-08-03T01:31:40;22.00;99.90
23597;DHT22;40226;50.874;4.394;2022-08-03T01:34:09;21.90;99.90
23597;DHT22;40226;50.874;4.394;2022-08-03T01:36:40;21.90;99.90
23597;DHT22;40226;50.874;4.394;2022-08-03T01:39:07;21.80;99.90
23597;DHT22;40226;50.874;4.394;2022-08-03T01:41:43;21.80;99.90
23597;DHT22;40226;50.874;4.394;2022-08-03T01:44:11;21.80;99.90
23597;DHT22;40226;50.874;4.394;2022-08-03T01:46:38;21.80;99.90
23597;DHT22;40226;50.874;4.394;2022-08-03T01:49:08;22.00;99.90
23597;DHT22;40226;50.874;4.394;2022-08-03T01:51:37;22.20;99.90
23597;DHT22;40226;50.874;4.394;2022-08-03T01:54:04;22.20;99.90
23597;DHT22;40226;50.874;4.394;2022-08-03T01:56:30;21.90;99.90
23597;DHT22;40226;50.874;4.394;2022-08-03T01:58:58;21.80;99.90
23597;DHT22;40226;50.874;4.394;2022-08-03T02:01:26;21.80;99.90
23597;DHT22;40226;50.874;4.394;2022-08-03T02:03:54;22.00;99.90
23597;DHT22;40226;50.874;4.394;2022-08-03T02:06:21;22.00;99.90
23597;DHT22;40226;50.874;4.394;2022-08-03T02:08:48;22.00;99.90
23597;DHT22;40226;50.874;4.394;2022-08-03T02:11:15;22.00;99.90
23597;DHT22;40226;50.874;4.394;2022-08-03T02:13:42;22.00;99.90
23597;DHT22;40226;50.874;4.394;2022-08-03T02:16:08;22.10;99.90
23597;DHT22;40226;50.874;4.394;2022-08-03T02:18:36;22.00;99.90
23597;DHT22;40226;50.874;4.394;2022-08-03T02:21:04;21.90;99.90
23597;DHT22;40226;50.874;4.394;2022-08-03T02:23:31;22.10;99.90
23597;DHT22;40226;50.874;4.394;2022-08-03T02:26:00;22.00;99.90
23597;DHT22;40226;50.874;4.394;2022-08-03T02:28:46;21.90;99.90
23597;DHT22;40226;50.874;4.394;2022-08-03T02:31:17;21.90;99.90
23597;DHT22;40226;50.874;4.394;2022-08-03T02:33:49;22.10;99.90
23597;DHT22;40226;50.874;4.394;2022-08-03T02:36:19;22.10;99.90
23597;DHT22;40226;50.874;4.394;2022-08-03T02:38:49;22.10;99.90
23597;DHT22;40226;50.874;4.394;2022-08-03T02:41:21;22.10;99.90
23597;DHT22;40226;50.874;4.394;2022-08-03T02:43:50;22.10;99.90
23597;DHT22;40226;50.874;4.394;2022-08-03T02:46:18;22.10;99.90
23597;DHT22;40226;50.874;4.394;2022-08-03T02:48:46;22.20;99.90
23597;DHT22;40226;50.874;4.394;2022-08-03T02:51:13;22.40;99.90
23597;DHT22;40226;50.874;4.394;2022-08-03T02:53:41;22.50;99.90
23597;DHT22;40226;50.874;4.394;2022-08-03T02:56:08;22.50;99.90
23597;DHT22;40226;50.874;4.394;2022-08-03T02:58:35;22.60;99.90
23597;DHT22;40226;50.874;4.394;2022-08-03T03:01:01;22.60;99.90
23597;DHT22;40226;50.874;4.394;2022-08-03T03:03:28;22.70;99.90
23597;DHT22;40226;50.874;4.394;2022-08-03T03:05:54;22.70;99.90
23597;DHT22;40226;50.874;4.394;2022-08-03T03:08:21;22.50;99.90
23597;DHT22;40226;50.874;4.394;2022-08-03T03:10:47;22.30;99.90
23597;DHT22;40226;50.874;4.394;2022-08-03T03:13:14;22.00;99.90
23597;DHT22;40226;50.874;4.394;2022-08-03T03:15:41;22.00;99.90
23597;DHT22;40226;50.874;4.394;2022-08-03T03:18:07;22.10;99.90
23597;DHT22;40226;50.874;4.394;2022-08-03T03:20:35;22.10;99.90
23597;DHT22;40226;50.874;4.394;2022-08-03T03:23:01;22.20;99.90
23597;DHT22;40226;50.874;4.394;2022-08-03T03:25:31;22.10;99.90
23597;DHT22;40226;50.874;4.394;2022-08-03T03:27:59;21.90;99.90
23597;DHT22;40226;50.874;4.394;2022-08-03T03:30:25;21.90;99.90
23597;DHT22;40226;50.874;4.394;2022-08-03T03:32:51;21.70;99.90
23597;DHT22;40226;50.874;4.394;2022-08-03T03:35:17;21.50;99.90
23597;DHT22;40226;50.874;4.394;2022-08-03T03:37:43;21.40;99.90
23597;DHT22;40226;50.874;4.394;2022-08-03T03:40:09;21.50;99.90
23597;DHT22;40226;50.874;4.394;2022-08-03T03:42:35;21.50;99.90
23597;DHT22;40226;50.874;4.394;2022-08-03T03:45:06;21.50;99.90
23597;DHT22;40226;50.874;4.394;2022-08-03T03:47:33;21.40;99.90
23597;DHT22;40226;50.874;4.394;2022-08-03T03:49:59;21.40;99.90
23597;DHT22;40226;50.874;4.394;2022-08-03T03:52:25;21.30;99.90
23597;DHT22;40226;50.874;4.394;2022-08-03T03:54:51;21.40;99.90
23597;DHT22;40226;50.874;4.394;2022-08-03T03:57:17;21.40;99.90
23597;DHT22;40226;50.874;4.394;2022-08-03T03:59:42;21.50;99.90
23597;DHT22;40226;50.874;4.394;2022-08-03T04:02:09;21.40;99.90
23597;DHT22;40226;50.874;4.394;2022-08-03T04:04:36;21.30;99.90
23597;DHT22;40226;50.874;4.394;2022-08-03T04:07:20;21.30;99.90
23597;DHT22;40226;50.874;4.394;2022-08-03T04:10:20;21.20;99.90
23597;DHT22;40226;50.874;4.394;2022-08-03T04:13:08;21.20;99.90
23597;DHT22;40226;50.874;4.394;2022-08-03T04:15:37;21.40;99.90
23597;DHT22;40226;50.874;4.394;2022-08-03T04:18:05;21.20;99.90
23597;DHT22;40226;50.874;4.394;2022-08-03T04:20:34;21.20;99.90
23597;DHT22;40226;50.874;4.394;2022-08-03T04:23:02;21.20;99.90
23597;DHT22;40226;50.874;4.394;2022-08-03T04:25:31;21.10;99.90
23597;DHT22;40226;50.874;4.394;2022-08-03T04:27:59;21.10;99.90
23597;DHT22;40226;50.874;4.394;2022-08-03T04:30:29;21.20;99.90
23597;DHT22;40226;50.874;4.394;2022-08-03T04:32:56;21.10;99.90
23597;DHT22;40226;50.874;4.394;2022-08-03T04:35:28;21.00;99.90
23597;DHT22;40226;50.874;4.394;2022-08-03T04:38:00;20.90;99.90
23597;DHT22;40226;50.874;4.394;2022-08-03T04:40:29;21.00;99.90
23597;DHT22;40226;50.874;4.394;2022-08-03T04:42:57;21.00;99.90
23597;DHT22;40226;50.874;4.394;2022-08-03T04:45:24;21.10;99.90
23597;DHT22;40226;50.874;4.394;2022-08-03T04:47:51;20.90;99.90
23597;DHT22;40226;50.874;4.394;2022-08-03T04:50:18;21.00;99.90
23597;DHT22;40226;50.874;4.394;2022-08-03T04:52:44;21.30;99.90
23597;DHT22;40226;50.874;4.394;2022-08-03T04:55:10;21.40;99.90
23597;DHT22;40226;50.874;4.394;2022-08-03T04:57:35;21.40;99.90
23597;DHT22;40226;50.874;4.394;2022-08-03T05:00:02;21.30;99.90
23597;DHT22;40226;50.874;4.394;2022-08-03T05:02:28;21.20;99.90
23597;DHT22;40226;50.874;4.394;2022-08-03T05:04:54;21.20;99.90
23597;DHT22;40226;50.874;4.394;2022-08-03T05:07:20;21.00;99.90
23597;DHT22;40226;50.874;4.394;2022-08-03T05:09:45;20.90;99.90
23597;DHT22;40226;50.874;4.394;2022-08-03T05:12:11;20.90;99.90
23597;DHT22;40226;50.874;4.394;2022-08-03T05:14:38;21.00;99.90
23597;DHT22;40226;50.874;4.394;2022-08-03T05:17:04;21.20;99.90
23597;DHT22;40226;50.874;4.394;2022-08-03T05:19:30;21.30;99.90
23597;DHT22;40226;50.874;4.394;2022-08-03T05:21:55;21.30;99.90
23597;DHT22;40226;50.874;4.394;2022-08-03T05:24:21;21.40;99.90
23597;DHT22;40226;50.874;4.394;2022-08-03T05:26:47;21.40;99.90
23597;DHT22;40226;50.874;4.394;2022-08-03T05:29:12;21.50;99.90
23597;DHT22;40226;50.874;4.394;2022-08-03T05:31:38;21.60;99.90
23597;DHT22;40226;50.874;4.394;2022-08-03T05:34:04;21.60;99.90
23597;DHT22;40226;50.874;4.394;2022-08-03T05:36:30;21.60;99.90
23597;DHT22;40226;50.874;4.394;2022-08-03T05:38:56;21.70;99.90
23597;DHT22;40226;50.874;4.394;2022-08-03T05:41:21;21.70;99.90
23597;DHT22;40226;50.874;4.394;2022-08-03T05:43:47;21.90;99.90
23597;DHT22;40226;50.874;4.394;2022-08-03T05:46:12;21.90;99.90
23597;DHT22;40226;50.874;4.394;2022-08-03T05:48:38;21.90;99.90
23597;DHT22;40226;50.874;4.394;2022-08-03T05:51:04;21.80;99.90
23597;DHT22;40226;50.874;4.394;2022-08-03T05:53:35;21.70;99.90
23597;DHT22;40226;50.874;4.394;2022-08-03T05:56:01;21.80;99.90
23597;DHT22;40226;50.874;4.394;2022-08-03T05:58:26;21.90;99.90
23597;DHT22;40226;50.874;4.394;2022-08-03T06:00:52;22.10;99.90
23597;DHT22;40226;50.874;4.394;2022-08-03T06:03:17;22.20;99.90
23597;DHT22;40226;50.874;4.394;2022-08-03T06:05:44;22.20;99.90
23597;DHT22;40226;50.874;4.394;2022-08-03T06:08:10;22.40;99.90
23597;DHT22;40226;50.874;4.394;2022-08-03T06:10:37;22.10;99.90
23597;DHT22;40226;50.874;4.394;2022-08-03T06:13:02;22.00;99.90
23597;DHT22;40226;50.874;4.394;2022-08-03T06:15:28;22.00;99.90
23597;DHT22;40226;50.874;4.394;2022-08-03T06:17:55;22.00;99.90
23597;DHT22;40226;50.874;4.394;2022-08-03T06:20:22;22.00;99.90
23597;DHT22;40226;50.874;4.394;2022-08-03T06:22:48;21.80;99.90
23597;DHT22;40226;50.874;4.394;2022-08-03T06:25:14;21.80;99.90
23597;DHT22;40226;50.874;4.394;2022-08-03T06:27:41;21.90;99.90
23597;DHT22;40226;50.874;4.394;2022-08-03T06:30:08;22.10;99.90
23597;DHT22;40226;50.874;4.394;2022-08-03T06:32:41;22.10;99.90
23597;DHT22;40226;50.874;4.394;2022-08-03T06:35:08;22.20;99.90
23597;DHT22;40226;50.874;4.394;2022-08-03T06:37:44;22.20;99.90
23597;DHT22;40226;50.874;4.394;2022-08-03T06:40:17;22.30;99.90
23597;DHT22;40226;50.874;4.394;2022-08-03T06:42:43;22.30;99.90
23597;DHT22;40226;50.874;4.394;2022-08-03T06:45:10;22.30;99.90
23597;DHT22;40226;50.874;4.394;2022-08-03T06:47:37;22.40;99.90
23597;DHT22;40226;50.874;4.394;2022-08-03T06:50:04;22.50;99.90
23597;DHT22;40226;50.874;4.394;2022-08-03T06:52:30;22.60;99.90
23597;DHT22;40226;50.874;4.394;2022-08-03T06:54:56;22.70;99.90
23597;DHT22;40226;50.874;4.394;2022-08-03T06:57:22;22.90;99.90
23597;DHT22;40226;50.874;4.394;2022-08-03T06:59:47;23.20;99.90
23597;DHT22;40226;50.874;4.394;2022-08-03T07:02:13;23.30;99.90
23597;DHT22;40226;50.874;4.394;2022-08-03T07:04:39;23.40;99.90
23597;DHT22;40226;50.874;4.394;2022-08-03T07:07:04;23.60;99.90
23597;DHT22;40226;50.874;4.394;2022-08-03T07:09:30;23.70;99.90
23597;DHT22;40226;50.874;4.394;2022-08-03T07:11:56;23.70;99.90
23597;DHT22;40226;50.874;4.394;2022-08-03T07:14:22;23.80;99.90
23597;DHT22;40226;50.874;4.394;2022-08-03T07:16:47;23.70;99.90
23597;DHT22;40226;50.874;4.394;2022-08-03T07:19:13;23.90;99.90
23597;DHT22;40226;50.874;4.394;2022-08-03T07:21:38;23.70;99.90
23597;DHT22;40226;50.874;4.394;2022-08-03T07:24:04;24.00;99.90
23597;DHT22;40226;50.874;4.394;2022-08-03T07:26:30;24.00;99.90
23597;DHT22;40226;50.874;4.394;2022-08-03T07:28:56;24.00;99.90
23597;DHT22;40226;50.874;4.394;2022-08-03T07:31:21;24.20;99.90
23597;DHT22;40226;50.874;4.394;2022-08-03T07:33:47;24.30;99.90
23597;DHT22;40226;50.874;4.394;2022-08-03T07:36:12;24.20;99.90
23597;DHT22;40226;50.874;4.394;2022-08-03T07:38:38;24.20;99.90
23597;DHT22;40226;50.874;4.394;2022-08-03T07:41:03;24.20;99.90
23597;DHT22;40226;50.874;4.394;2022-08-03T07:43:29;24.20;99.90
23597;DHT22;40226;50.874;4.394;2022-08-03T07:45:54;24.40;99.90
23597;DHT22;40226;50.874;4.394;2022-08-03T07:48:20;24.40;99.90
23597;DHT22;40226;50.874;4.394;2022-08-03T07:50:46;24.20;99.90
23597;DHT22;40226;50.874;4.394;2022-08-03T07:53:11;24.00;99.90
23597;DHT22;40226;50.874;4.394;2022-08-03T07:55:37;24.10;99.90
23597;DHT22;40226;50.874;4.394;2022-08-03T07:58:08;24.20;99.90
23597;DHT22;40226;50.874;4.394;2022-08-03T08:00:34;24.40;99.90
23597;DHT22;40226;50.874;4.394;2022-08-03T08:03:00;24.40;99.90
23597;DHT22;40226;50.874;4.394;2022-08-03T08:05:26;24.60;99.90
23597;DHT22;40226;50.874;4.394;2022-08-03T08:07:52;24.60;99.90
23597;DHT22;40226;50.874;4.394;2022-08-03T08:10:18;24.80;99.90
23597;DHT22;40226;50.874;4.394;2022-08-03T08:12:44;25.00;99.90
23597;DHT22;40226;50.874;4.394;2022-08-03T08:15:12;25.00;99.90
23597;DHT22;40226;50.874;4.394;2022-08-03T08:17:47;25.10;99.90
23597;DHT22;40226;50.874;4.394;2022-08-03T08:20:21;24.90;99.90
23597;DHT22;40226;50.874;4.394;2022-08-03T08:22:47;24.90;99.90
23597;DHT22;40226;50.874;4.394;2022-08-03T08:25:14;25.00;99.90
23597;DHT22;40226;50.874;4.394;2022-08-03T08:27:43;25.10;99.90
23597;DHT22;40226;50.874;4.394;2022-08-03T08:30:10;25.30;99.90
23597;DHT22;40226;50.874;4.394;2022-08-03T08:32:36;25.30;99.90
23597;DHT22;40226;50.874;4.394;2022-08-03T08:35:04;25.20;99.90
23597;DHT22;40226;50.874;4.394;2022-08-03T08:37:29;25.20;99.90
23597;DHT22;40226;50.874;4.394;2022-08-03T08:39:55;25.30;99.90
23597;DHT22;40226;50.874;4.394;2022-08-03T08:42:21;25.50;99.90
23597;DHT22;40226;50.874;4.394;2022-08-03T08:44:47;25.50;99.90
23597;DHT22;40226;50.874;4.394;2022-08-03T08:47:14;25.60;99.90
23597;DHT22;40226;50.874;4.394;2022-08-03T08:49:40;25.80;99.90
23597;DHT22;40226;50.874;4.394;2022-08-03T08:52:10;25.90;99.90
23597;DHT22;40226;50.874;4.394;2022-08-03T08:54:37;26.10;99.90
23597;DHT22;40226;50.874;4.394;2022-08-03T08:57:06;26.00;99.90
23597;DHT22;40226;50.874;4.394;2022-08-03T08:59:32;26.10;99.90
23597;DHT22;40226;50.874;4.394;2022-08-03T09:02:01;26.20;99.90
23597;DHT22;40226;50.874;4.394;2022-08-03T09:04:30;26.40;99.90
23597;DHT22;40226;50.874;4.394;2022-08-03T09:06:56;26.70;99.90
23597;DHT22;40226;50.874;4.394;2022-08-03T09:09:22;26.80;99.90
23597;DHT22;40226;50.874;4.394;2022-08-03T09:11:48;26.80;99.90
23597;DHT22;40226;50.874;4.394;2022-08-03T09:14:14;27.00;99.90
23597;DHT22;40226;50.874;4.394;2022-08-03T09:16:55;27.00;99.90
23597;DHT22;40226;50.874;4.394;2022-08-03T09:19:23;27.00;99.90
23597;DHT22;40226;50.874;4.394;2022-08-03T09:22:13;27.00;99.90
23597;DHT22;40226;50.874;4.394;2022-08-03T09:25:00;26.90;99.90
23597;DHT22;40226;50.874;4.394;2022-08-03T09:27:25;27.00;99.90
23597;DHT22;40226;50.874;4.394;2022-08-03T09:29:52;27.00;99.90
23597;DHT22;40226;50.874;4.394;2022-08-03T09:32:23;27.00;99.90
23597;DHT22;40226;50.874;4.394;2022-08-03T09:34:50;27.20;99.90
23597;DHT22;40226;50.874;4.394;2022-08-03T09:37:18;27.20;99.90
23597;DHT22;40226;50.874;4.394;2022-08-03T09:39:44;27.40;99.90
23597;DHT22;40226;50.874;4.394;2022-08-03T09:42:15;27.50;99.90
23597;DHT22;40226;50.874;4.394;2022-08-03T09:44:47;27.70;99.90
23597;DHT22;40226;50.874;4.394;2022-08-03T09:47:15;27.80;99.90
23597;DHT22;40226;50.874;4.394;2022-08-03T09:49:41;27.70;99.90
23597;DHT22;40226;50.874;4.394;2022-08-03T09:52:13;27.80;99.90
23597;DHT22;40226;50.874;4.394;2022-08-03T09:54:40;28.00;99.90
23597;DHT22;40226;50.874;4.394;2022-08-03T09:57:06;28.20;99.90
23597;DHT22;40226;50.874;4.394;2022-08-03T09:59:32;28.20;99.90
23597;DHT22;40226;50.874;4.394;2022-08-03T10:01:58;28.00;99.90
23597;DHT22;40226;50.874;4.394;2022-08-03T10:04:25;28.00;99.90
23597;DHT22;40226;50.874;4.394;2022-08-03T10:07:08;28.20;99.90
23597;DHT22;40226;50.874;4.394;2022-08-03T10:09:35;28.00;99.90
23597;DHT22;40226;50.874;4.394;2022-08-03T10:12:11;27.90;99.90
23597;DHT22;40226;50.874;4.394;2022-08-03T10:14:38;28.20;99.90
23597;DHT22;40226;50.874;4.394;2022-08-03T10:17:04;28.10;99.90
23597;DHT22;40226;50.874;4.394;2022-08-03T10:19:30;28.50;99.90
23597;DHT22;40226;50.874;4.394;2022-08-03T10:22:02;28.60;99.90
23597;DHT22;40226;50.874;4.394;2022-08-03T10:24:29;28.80;99.90
23597;DHT22;40226;50.874;4.394;2022-08-03T10:27:15;28.80;99.90
23597;DHT22;40226;50.874;4.394;2022-08-03T10:29:46;28.70;99.90
23597;DHT22;40226;50.874;4.394;2022-08-03T10:32:24;28.60;99.90
23597;DHT22;40226;50.874;4.394;2022-08-03T10:34:55;28.60;99.90
23597;DHT22;40226;50.874;4.394;2022-08-03T10:37:23;28.60;99.90
23597;DHT22;40226;50.874;4.394;2022-08-03T10:39:52;28.60;99.90
23597;DHT22;40226;50.874;4.394;2022-08-03T10:42:25;28.70;99.90
23597;DHT22;40226;50.874;4.394;2022-08-03T10:45:06;28.70;99.90
23597;DHT22;40226;50.874;4.394;2022-08-03T10:47:34;28.60;99.90
23597;DHT22;40226;50.874;4.394;2022-08-03T10:50:00;28.60;99.90
23597;DHT22;40226;50.874;4.394;2022-08-03T10:52:26;28.70;99.90
23597;DHT22;40226;50.874;4.394;2022-08-03T10:54:52;29.20;99.90
23597;DHT22;40226;50.874;4.394;2022-08-03T11:00:14;29.80;99.90
23597;DHT22;40226;50.874;4.394;2022-08-03T11:05:29;29.50;99.90
23597;DHT22;40226;50.874;4.394;2022-08-03T11:08:24;29.20;99.90
23597;DHT22;40226;50.874;4.394;2022-08-03T11:10:52;29.30;99.90
23597;DHT22;40226;50.874;4.394;2022-08-03T11:13:21;29.40;99.90
23597;DHT22;40226;50.874;4.394;2022-08-03T11:15:50;30.30;99.90
23597;DHT22;40226;50.874;4.394;2022-08-03T11:18:16;30.90;99.90
23597;DHT22;40226;50.874;4.394;2022-08-03T11:20:47;31.50;99.90
23597;DHT22;40226;50.874;4.394;2022-08-03T11:23:14;31.50;99.90
23597;DHT22;40226;50.874;4.394;2022-08-03T11:26:08;32.20;99.90
23597;DHT22;40226;50.874;4.394;2022-08-03T11:28:35;33.10;99.90
23597;DHT22;40226;50.874;4.394;2022-08-03T11:34:09;33.60;99.90
23597;DHT22;40226;50.874;4.394;2022-08-03T11:39:39;35.50;96.90
23597;DHT22;40226;50.874;4.394;2022-08-03T11:44:55;35.40;94.10
23597;DHT22;40226;50.874;4.394;2022-08-03T11:47:24;35.40;93.60
23597;DHT22;40226;50.874;4.394;2022-08-03T11:49:54;35.40;92.70
23597;DHT22;40226;50.874;4.394;2022-08-03T11:52:21;34.70;92.60
23597;DHT22;40226;50.874;4.394;2022-08-03T11:54:51;35.30;92.10
23597;DHT22;40226;50.874;4.394;2022-08-03T11:57:30;36.50;90.90
23597;DHT22;40226;50.874;4.394;2022-08-03T11:59:56;35.70;90.10
23597;DHT22;40226;50.874;4.394;2022-08-03T12:02:22;36.60;87.90
23597;DHT22;40226;50.874;4.394;2022-08-03T12:07:17;38.80;80.30
23597;DHT22;40226;50.874;4.394;2022-08-03T12:09:43;37.40;78.50
23597;DHT22;40226;50.874;4.394;2022-08-03T12:12:26;36.40;81.10
23597;DHT22;40226;50.874;4.394;2022-08-03T12:14:51;36.80;81.10
23597;DHT22;40226;50.874;4.394;2022-08-03T12:17:17;37.90;77.10
23597;DHT22;40226;50.874;4.394;2022-08-03T12:19:43;37.80;76.60
23597;DHT22;40226;50.874;4.394;2022-08-03T12:22:08;39.10;73.10
23597;DHT22;40226;50.874;4.394;2022-08-03T12:24:41;38.30;72.50
23597;DHT22;40226;50.874;4.394;2022-08-03T12:27:07;37.50;72.80
23597;DHT22;40226;50.874;4.394;2022-08-03T12:29:33;37.50;72.40
23597;DHT22;40226;50.874;4.394;2022-08-03T12:31:58;36.20;75.00
23597;DHT22;40226;50.874;4.394;2022-08-03T12:34:44;35.70;76.90
23597;DHT22;40226;50.874;4.394;2022-08-03T12:37:10;37.50;73.80
23597;DHT22;40226;50.874;4.394;2022-08-03T12:39:36;37.10;73.50
23597;DHT22;40226;50.874;4.394;2022-08-03T12:42:02;37.20;72.30
23597;DHT22;40226;50.874;4.394;2022-08-03T12:44:33;35.70;75.40
23597;DHT22;40226;50.874;4.394;2022-08-03T12:47:00;35.30;76.80
23597;DHT22;40226;50.874;4.394;2022-08-03T12:49:26;36.20;73.30
23597;DHT22;40226;50.874;4.394;2022-08-03T12:54:23;38.20;70.10
23597;DHT22;40226;50.874;4.394;2022-08-03T12:57:10;37.50;70.40
23597;DHT22;40226;50.874;4.394;2022-08-03T12:59:41;37.70;68.70
23597;DHT22;40226;50.874;4.394;2022-08-03T13:02:21;37.60;69.30
23597;DHT22;40226;50.874;4.394;2022-08-03T13:04:48;38.60;68.00
23597;DHT22;40226;50.874;4.394;2022-08-03T13:07:15;40.10;65.00
23597;DHT22;40226;50.874;4.394;2022-08-03T13:12:14;39.20;63.40
23597;DHT22;40226;50.874;4.394;2022-08-03T13:14:41;39.40;63.50
23597;DHT22;40226;50.874;4.394;2022-08-03T13:17:07;39.20;62.90
23597;DHT22;40226;50.874;4.394;2022-08-03T13:19:34;38.20;64.30
23597;DHT22;40226;50.874;4.394;2022-08-03T13:22:09;38.20;65.40
23597;DHT22;40226;50.874;4.394;2022-08-03T13:24:35;38.10;64.10
23597;DHT22;40226;50.874;4.394;2022-08-03T13:27:00;38.80;63.50
23597;DHT22;40226;50.874;4.394;2022-08-03T13:29:27;39.90;61.90
23597;DHT22;40226;50.874;4.394;2022-08-03T13:31:52;39.70;61.30
23597;DHT22;40226;50.874;4.394;2022-08-03T13:34:19;41.00;59.20
23597;DHT22;40226;50.874;4.394;2022-08-03T13:36:44;41.90;56.70
23597;DHT22;40226;50.874;4.394;2022-08-03T13:39:10;42.80;54.90
23597;DHT22;40226;50.874;4.394;2022-08-03T13:41:35;42.20;54.90
23597;DHT22;40226;50.874;4.394;2022-08-03T13:44:01;41.40;55.50
23597;DHT22;40226;50.874;4.394;2022-08-03T13:46:26;41.70;55.60
23597;DHT22;40226;50.874;4.394;2022-08-03T13:48:52;42.10;54.00
23597;DHT22;40226;50.874;4.394;2022-08-03T13:51:17;40.80;54.90
23597;DHT22;40226;50.874;4.394;2022-08-03T13:53:43;39.80;56.20
23597;DHT22;40226;50.874;4.394;2022-08-03T13:56:09;40.60;55.80
23597;DHT22;40226;50.874;4.394;2022-08-03T13:58:34;40.30;55.30
23597;DHT22;40226;50.874;4.394;2022-08-03T14:01:00;39.30;56.20
23597;DHT22;40226;50.874;4.394;2022-08-03T14:03:25;38.20;58.00
23597;DHT22;40226;50.874;4.394;2022-08-03T14:05:51;37.60;59.60
23597;DHT22;40226;50.874;4.394;2022-08-03T14:08:16;39.20;58.30
23597;DHT22;40226;50.874;4.394;2022-08-03T14:10:43;39.60;56.10
23597;DHT22;40226;50.874;4.394;2022-08-03T14:13:13;39.90;56.10
23597;DHT22;40226;50.874;4.394;2022-08-03T14:15:40;40.20;55.40
23597;DHT22;40226;50.874;4.394;2022-08-03T14:18:07;38.40;56.40
23597;DHT22;40226;50.874;4.394;2022-08-03T14:20:33;36.60;60.00
23597;DHT22;40226;50.874;4.394;2022-08-03T14:22:59;36.40;60.80
23597;DHT22;40226;50.874;4.394;2022-08-03T14:25:25;37.00;60.80
23597;DHT22;40226;50.874;4.394;2022-08-03T14:27:50;38.90;57.90
23597;DHT22;40226;50.874;4.394;2022-08-03T14:30:18;39.10;56.40
23597;DHT22;40226;50.874;4.394;2022-08-03T14:32:44;40.50;55.60
23597;DHT22;40226;50.874;4.394;2022-08-03T14:35:10;41.10;54.40
23597;DHT22;40226;50.874;4.394;2022-08-03T14:37:36;42.10;52.80
23597;DHT22;40226;50.874;4.394;2022-08-03T14:40:02;43.10;51.30
23597;DHT22;40226;50.874;4.394;2022-08-03T14:42:28;44.10;49.80
23597;DHT22;40226;50.874;4.394;2022-08-03T14:44:53;43.80;49.00
23597;DHT22;40226;50.874;4.394;2022-08-03T14:47:19;43.20;49.20
23597;DHT22;40226;50.874;4.394;2022-08-03T14:49:46;43.00;49.00
23597;DHT22;40226;50.874;4.394;2022-08-03T14:52:12;41.70;50.60
23597;DHT22;40226;50.874;4.394;2022-08-03T14:54:38;42.20;50.40
23597;DHT22;40226;50.874;4.394;2022-08-03T14:57:03;43.70;48.80
23597;DHT22;40226;50.874;4.394;2022-08-03T14:59:29;45.40;46.20
23597;DHT22;40226;50.874;4.394;2022-08-03T15:01:54;46.10;45.30
23597;DHT22;40226;50.874;4.394;2022-08-03T15:04:20;47.10;43.40
23597;DHT22;40226;50.874;4.394;2022-08-03T15:06:46;48.10;41.60
23597;DHT22;40226;50.874;4.394;2022-08-03T15:09:12;47.60;41.30
23597;DHT22;40226;50.874;4.394;2022-08-03T15:11:37;46.70;40.90
23597;DHT22;40226;50.874;4.394;2022-08-03T15:14:03;44.30;43.10
23597;DHT22;40226;50.874;4.394;2022-08-03T15:16:28;44.20;43.90
23597;DHT22;40226;50.874;4.394;2022-08-03T15:18:54;44.30;43.80
23597;DHT22;40226;50.874;4.394;2022-08-03T15:21:20;44.10;43.50
23597;DHT22;40226;50.874;4.394;2022-08-03T15:23:45;43.30;44.50
23597;DHT22;40226;50.874;4.394;2022-08-03T15:26:11;43.90;43.80
23597;DHT22;40226;50.874;4.394;2022-08-03T15:28:36;45.00;43.40
23597;DHT22;40226;50.874;4.394;2022-08-03T15:31:02;44.60;42.30
23597;DHT22;40226;50.874;4.394;2022-08-03T15:33:28;44.00;43.30
23597;DHT22;40226;50.874;4.394;2022-08-03T15:35:55;45.40;42.20
23597;DHT22;40226;50.874;4.394;2022-08-03T15:38:21;46.70;41.10
23597;DHT22;40226;50.874;4.394;2022-08-03T15:40:49;47.50;40.30
23597;DHT22;40226;50.874;4.394;2022-08-03T15:43:15;47.50;38.90
23597;DHT22;40226;50.874;4.394;2022-08-03T15:45:40;46.40;40.00
23597;DHT22;40226;50.874;4.394;2022-08-03T15:48:09;46.10;39.80
23597;DHT22;40226;50.874;4.394;2022-08-03T15:50:35;44.80;41.50
23597;DHT22;40226;50.874;4.394;2022-08-03T15:53:00;43.70;42.50
23597;DHT22;40226;50.874;4.394;2022-08-03T15:55:26;42.10;43.90
23597;DHT22;40226;50.874;4.394;2022-08-03T15:57:52;42.70;43.90
23597;DHT22;40226;50.874;4.394;2022-08-03T16:00:17;43.70;43.30
23597;DHT22;40226;50.874;4.394;2022-08-03T16:02:43;44.30;42.20
23597;DHT22;40226;50.874;4.394;2022-08-03T16:05:08;45.40;41.50